Daniel Field
KDNL : now visible

Airfield :











YOU CAN JOIN US ON...

 
LOGIN :

Register | Disclaimer

   EN    FR    IT 

 









Legend :    VFR   Marginal VFR   IFR   Intensive IFR   Very Intensive IFR
Visi :
Ceiling :
>= 8 km
>= 3000ft
5 to 8 km
1000 to 3000 ft
1500m to 5 km
500 to 1000 ft
800 to 1500m
200 to 500 ft
< 800m
< 200 ft
Symbols :   Thunderstorms  Fog  Heavy snow  Heavy precipitations  Wind > 20 kt






- Airport Elevation : 423 ft


KDNL - Daniel Field

CURRENT METAR :
  • 221353Z AUTO 00000KT 10SM BKN065 OVC080 23/20 A3025 RMK AO2 RAE10 SLP241 P0001 T02280200

EXPIRED METARs :
  • 221253Z AUTO 29006KT 4SM -RA BKN065 OVC080 22/19 A3025 RMK AO2 SLP240 P0007 T02220194
  • 221225Z AUTO 30005KT 6SM -RA BR FEW050 OVC075 22/19 A3025 RMK AO2 P0005 T02170194
  • 221205Z AUTO VRB05KT 2SM -RA BR FEW009 OVC075 22/20 A3026 RMK AO2 P0002 T02220200
  • 221153Z AUTO VRB05KT 1 3/4SM RA BR FEW009 BKN080 OVC095 23/21 A3026 RMK AO2 VIS 1V4 RAB29 SLP241 P0001 60001 70003 T02280206 10228 20222 53023
  • 221126Z AUTO 19005KT 8SM FEW007 OVC095 23/21 A3024 RMK AO2 T02280206

TAF KDNL
Valid from the 22 at 12:00 until the 23 at 12:00 UTC


221132Z 2212/2312 16004KT P6SM SHRA SCT003 BKN110
FM221500 23009KT P6SM BKN120
FM222000 24010KT P6SM VCTS SCT050CB BKN120
FM230300 21004KT P6SM SCT100
KZTL FIR / North America



MET'MAP, your aeronautical weather chart ! - Copyright ORBIFLY December 2007 - Disclaimer

ORBIFLY MET'MAP TEAM :

Programming & Development : Alexandra Zaïnal
Original concept : Baudouin d'Aumeries
Technical & hardware support : Manuel Goepfert
Assistance : Marc-Olivier Méhu

Contact : metmap@orbifly.com




SOURCES & CREDITS :

   NOAA       Earth
Advisory